Terminal Aerodrome Forecast
Issued by NWS

Home | Current Version | Previous Version | Text Only | Print | Product List | Glossary On
Versions: 1 2 3 4 5 6 7 8 9 10 11 12 13 14 15 16 17 18
000
FTUS41 KBTV 230533
TAFRUT
TAF
KRUT 230533Z 2306/2406 32010G16KT P6SM BKN025
     FM230800 32006KT P6SM SCT025
     FM231000 32005KT P6SM SCT090
     FM232000 VRB03KT P6SM BKN110
     FM232200 VRB03KT P6SM SCT120
     FM240300 16004KT P6SM BKN070=

USA.gov is the U.S. government's official web portal to all federal, state and local government web resources and services.